Rain radar more information rain snow radar


Visit our other weather sites:

Template documentation
and downloads

And another site



Nearby METAR Reports

   
KTIW - Tacoma, Washington, USA
Distance from station: W 7 mi
Updated: Nov 20 2019 9:53 am
Clear  
Clear  
   Wind: NNE 9.2 mph
Wind: NNE 9.2 mph
Temperature: 44.6°F
Wind Chill: 39.2°F
Dew Point: 35.6°F
Humidity: 71%
Barometer: 30.15 inHg
Clouds: Clear
Visibility: 10 mi
Cloud details: Clear m
KTIW 201753Z 02008KT 10SM CLR 07/02 A3015 RMK AO2 SLP213 6//// T00720022 10072 20050 50002 PNO $
KTCM - Tacoma/Mc Chord, Washington, USA
Distance from station: S 9 mi
Updated: Nov 20 2019 9:58 am
Few Clouds  
Few Clouds  
   Wind: Calm
Wind: Calm
Temperature: 42.8°F
Dew Point: 42.8°F
Humidity: 100%
Barometer: 30.15 inHg
Clouds: Few Clouds
Visibility: 10 mi
Cloud details: Few Clouds 152 m
KTCM 201758Z 00000KT 10SM FEW005 06/06 A3015 RMK AO2A SLP215 10061 21013 50001 $
KSEA - Seattle/Metro, Washington, USA
Distance from station: NNE 15 mi
Updated: Nov 20 2019 9:53 am
Few Clouds  
Few Clouds  
   Wind: NNE 8.1 mph
Wind: NNE 8.1 mph
Temperature: 46.4°F
Wind Chill: 42.8°F
Dew Point: 37.4°F
Humidity: 71%
Barometer: 30.16 inHg
Clouds: Few Clouds
Visibility: 10 mi
Cloud details: Few Clouds 152 m,
Few Clouds 7620 m
KSEA 201753Z 03007KT 10SM FEW005 FEW250 08/03 A3016 RMK AO2 SLP220 T00780033 10078 20039 50003
KBFI - Seattle/Boeing, Washington, USA
Distance from station: NNE 21 mi
Updated: Nov 20 2019 10:02 am
Few Clouds  
Few Clouds  
   Wind: varies 4.6 mph
Wind: varies 4.6 mph
Temperature: 46.4°F
Wind Chill: 44.6°F
Dew Point: 39.2°F
Humidity: 76%
Barometer: 30.18 inHg
Clouds: Few Clouds
Visibility: 10 mi
Cloud details: Few Clouds 244 m,
Few Clouds 305 m
KBFI 201802Z VRB04KT 10SM FEW008 FEW010 08/04 A3018 RMK AO2 T00780039
KOLM - Olympia, Washington, USA
Distance from station: SW 29 mi
Updated: Nov 20 2019 9:54 am
Clear  
Clear  
   Wind: ENE 4.6 mph
Wind: ENE 4.6 mph
Temperature: 41°F
Wind Chill: 37.4°F
Dew Point: 37.4°F
Humidity: 87%
Barometer: 30.16 inHg
Clouds: Clear
Visibility: 10 mi
Cloud details: Clear m
KOLM 201754Z 07004KT 10SM CLR 05/03 A3016 RMK AO2 SLP214 I6001 T00500033 10050 21028 50002
 

Script developed by  Saratoga-weather.org Adapted for the template by  Weerstation Leuven

You find our weather info also at:

Weather Underground

WeatherlinkIP

Citizen Weather Observer Program (CWOP)

Equipment we use:

Weather-station
Davis VP2

Weather-program
Meteobridge

Provider
MDD Hosting

Davis VP2

Meteobridge

MDD Hosting